Time;durP1;ratioP1;P1;durP2;ratioP2;P2;SDS_P1;SDS_P2;PMS_P1;PMS_P2;Temp;Humidity;BMP_temperature;BMP_pressure;BME280_temperature;BME280_humidity;BME280_pressure;Samples;Min_cycle;Max_cycle;Signal;HPM_P1;HPM_P2
2022/05/09 00:01:55;;;;;;;;;;;;;;;16.97;39.63;101456.47;4809672;29;866;-57
2022/05/09 00:04:20;;;;;;;;;;;;;;;16.86;39.63;101463.72;4812344;29;819;-57
2022/05/09 00:06:47;;;;;;;;;;;;;;;16.97;40.70;101456.47;4812216;29;736;-58
2022/05/09 00:09:13;;;;;;;;;;;;;;;17.13;41.77;101460.19;4812326;29;922;-57
2022/05/09 00:11:38;;;;;;;;;;;;;;;17.20;42.89;101460.78;4811948;29;1990;-57
2022/05/09 00:14:04;;;;;;;;;;;;;;;17.33;43.79;101459.53;4812400;29;780;-57
2022/05/09 00:16:33;;;;;;;;;;;;;;;17.48;44.32;101463.50;4811580;29;787;-57
2022/05/09 00:19:05;;;;;;;;;;;;;;;17.53;44.53;101463.53;4812105;29;1393;-57
2022/05/09 00:21:31;;;;;;;;;;;;;;;17.64;44.58;101461.69;4812160;29;1070;-57
2022/05/09 00:23:57;;;;;;;;;;;;;;;17.61;45.06;101465.78;4811968;29;896;-57
2022/05/09 00:26:24;;;;;;;;;;;;;;;17.72;45.01;101467.50;4811618;29;755;-57
2022/05/09 00:28:49;;;;;;;;;;;;;;;17.73;45.22;101465.63;4811359;29;1153;-57
2022/05/09 00:31:15;;;;;;;;;;;;;;;17.70;45.05;101464.22;4811776;29;1975;-58
2022/05/09 00:33:40;;;;;;;;;;;;;;;17.75;45.08;101460.66;4811654;29;950;-57
2022/05/09 00:36:06;;;;;;;;;;;;;;;17.79;45.12;101473.66;4811885;29;1371;-58
2022/05/09 00:38:32;;;;;;;;;;;;;;;17.82;45.29;101465.94;4811949;29;733;-58
2022/05/09 00:43:41;;;;;;;;;;;;;;;17.84;45.36;101456.34;4811691;29;816;-58
2022/05/09 00:46:08;;;;;;;;;;;;;;;17.88;45.19;101464.88;4811514;29;905;-58
2022/05/09 00:48:33;;;;;;;;;;;;;;;17.90;45.35;101462.69;4811635;29;824;-58
2022/05/09 00:50:59;;;;;;;;;;;;;;;17.93;45.09;101459.44;4811506;29;1982;-58
2022/05/09 00:53:24;;;;;;;;;;;;;;;17.95;45.27;101460.84;4810431;29;883;-59
2022/05/09 00:55:54;;;;;;;;;;;;;;;18.04;45.40;101457.56;4811103;29;1397;-58
2022/05/09 00:58:39;;;;;;;;;;;;;;;18.10;45.35;101454.59;4809847;29;992;-58
2022/05/09 01:01:04;;;;;;;;;;;;;;;18.06;45.34;101456.22;4806095;29;838;-58
2022/05/09 01:03:35;;;;;;;;;;;;;;;18.06;45.42;101449.88;4811064;29;879;-58
2022/05/09 01:06:01;;;;;;;;;;;;;;;18.08;45.49;101445.75;4810700;29;767;-58
2022/05/09 01:08:26;;;;;;;;;;;;;;;18.12;45.49;101448.81;4806458;29;855;-58
2022/05/09 01:10:52;;;;;;;;;;;;;;;18.09;45.32;101441.91;4811285;29;1897;-58
2022/05/09 01:13:19;;;;;;;;;;;;;;;18.15;45.16;101441.97;4810839;29;934;-58
2022/05/09 01:15:45;;;;;;;;;;;;;;;18.13;45.26;101440.28;4811181;29;874;-58
2022/05/09 01:18:11;;;;;;;;;;;;;;;18.04;45.12;101441.06;4810991;29;790;-57
2022/05/09 01:20:37;;;;;;;;;;;;;;;17.95;44.34;101440.75;4810750;29;1015;-57
2022/05/09 01:23:03;;;;;;;;;;;;;;;17.77;43.25;101442.81;4811383;29;775;-57
2022/05/09 01:25:29;;;;;;;;;;;;;;;17.59;42.30;101438.56;4810641;29;798;-57
2022/05/09 01:27:55;;;;;;;;;;;;;;;17.42;41.71;101446.13;4810727;29;1419;-58
2022/05/09 01:30:23;;;;;;;;;;;;;;;17.28;40.71;101443.81;4810767;29;1899;-57
2022/05/09 01:32:50;;;;;;;;;;;;;;;17.17;40.49;101444.00;4810358;29;778;-57
2022/05/09 01:35:25;;;;;;;;;;;;;;;17.05;40.36;101442.22;4809285;29;988;-57
2022/05/09 01:37:53;;;;;;;;;;;;;;;16.96;40.09;101445.72;4811178;29;833;-57
2022/05/09 01:40:18;;;;;;;;;;;;;;;16.88;39.84;101444.25;4808923;29;942;-57
2022/05/09 01:42:43;;;;;;;;;;;;;;;16.89;40.05;101443.19;4810872;29;959;-59
2022/05/09 01:45:09;;;;;;;;;;;;;;;16.97;40.85;101445.47;4810023;29;864;-59
2022/05/09 01:50:36;;;;;;;;;;;;;;;17.47;43.67;101437.09;4787834;30;1899;-57
2022/05/09 01:53:01;;;;;;;;;;;;;;;17.77;44.78;101442.00;4806378;29;932;-57
2022/05/09 01:55:27;;;;;;;;;;;;;;;18.08;45.57;101443.00;4810062;29;821;-57
2022/05/09 01:57:52;;;;;;;;;;;;;;;18.39;46.28;101442.31;4807289;29;870;-57
2022/05/09 02:00:18;;;;;;;;;;;;;;;18.57;46.74;101443.75;4810517;29;863;-57
2022/05/09 02:02:43;;;;;;;;;;;;;;;18.54;46.88;101449.81;4810527;29;848;-57
2022/05/09 02:05:09;;;;;;;;;;;;;;;18.28;46.17;101446.94;4810236;29;904;-58
2022/05/09 02:07:35;;;;;;;;;;;;;;;17.99;45.19;101444.59;4810148;29;721;-58
2022/05/09 02:10:00;;;;;;;;;;;;;;;17.78;43.83;101444.47;4809746;29;1903;-57
2022/05/09 02:12:27;;;;;;;;;;;;;;;17.57;42.48;101437.16;4810220;29;827;-57
2022/05/09 02:14:53;;;;;;;;;;;;;;;17.34;41.63;101433.69;4808680;29;929;-57
2022/05/09 02:17:18;;;;;;;;;;;;;;;17.18;40.55;101432.75;4809632;29;903;-57
2022/05/09 02:19:44;;;;;;;;;;;;;;;17.06;39.94;101438.41;4810362;29;816;-57
2022/05/09 02:22:09;;;;;;;;;;;;;;;16.95;40.00;101441.31;4809665;29;1018;-57
2022/05/09 02:24:35;;;;;;;;;;;;;;;16.87;39.82;101437.09;4809769;29;880;-57
2022/05/09 02:27:00;;;;;;;;;;;;;;;16.91;40.37;101436.34;4809857;29;1193;-57
2022/05/09 02:29:26;;;;;;;;;;;;;;;17.25;42.75;101429.75;4809954;29;1913;-58
2022/05/09 02:31:51;;;;;;;;;;;;;;;17.57;45.04;101432.50;4809542;29;1000;-57
2022/05/09 02:34:17;;;;;;;;;;;;;;;17.98;46.02;101431.97;4809876;29;836;-57
2022/05/09 02:36:42;;;;;;;;;;;;;;;18.22;46.73;101443.34;4809418;29;854;-57
2022/05/09 02:39:08;;;;;;;;;;;;;;;18.53;47.00;101434.38;4809366;29;749;-57
2022/05/09 02:41:33;;;;;;;;;;;;;;;18.65;47.24;101437.72;4810048;29;843;-57
2022/05/09 02:43:59;;;;;;;;;;;;;;;18.49;47.25;101436.84;4809837;29;788;-57
2022/05/09 02:46:24;;;;;;;;;;;;;;;18.23;46.14;101436.75;4809167;29;960;-59
2022/05/09 02:48:50;;;;;;;;;;;;;;;17.99;44.64;101438.28;4809088;29;772;-59
2022/05/09 02:51:17;;;;;;;;;;;;;;;17.72;43.16;101444.69;4809309;29;1900;-57
2022/05/09 02:53:42;;;;;;;;;;;;;;;17.45;42.06;101445.59;4809736;29;819;-58
2022/05/09 02:56:07;;;;;;;;;;;;;;;17.27;40.75;101438.59;4808918;29;1157;-62
2022/05/09 02:58:33;;;;;;;;;;;;;;;17.08;40.40;101444.47;4809680;29;755;-63
2022/05/09 03:00:59;;;;;;;;;;;;;;;16.98;39.50;101440.81;4803262;29;836;-64
2022/05/09 03:06:10;;;;;;;;;;;;;;;17.08;40.97;101452.72;4798798;29;1305;-64
2022/05/09 03:08:35;;;;;;;;;;;;;;;17.20;42.13;101449.78;4809188;29;876;-63
2022/05/09 03:11:01;;;;;;;;;;;;;;;17.37;43.00;101449.66;4808817;29;2044;-61
2022/05/09 03:13:26;;;;;;;;;;;;;;;17.49;43.63;101455.00;4808530;29;1006;-60
2022/05/09 03:15:52;;;;;;;;;;;;;;;17.53;44.09;101458.88;4808064;29;1279;-60
2022/05/09 03:18:18;;;;;;;;;;;;;;;17.65;44.53;101455.91;4808427;29;1237;-60
2022/05/09 03:20:45;;;;;;;;;;;;;;;17.69;44.70;101453.47;4806709;29;964;-60
2022/05/09 03:23:10;;;;;;;;;;;;;;;17.68;44.86;101463.63;4808575;29;898;-61
2022/05/09 03:25:36;;;;;;;;;;;;;;;17.74;44.85;101457.09;4807585;29;816;-60
2022/05/09 03:28:03;;;;;;;;;;;;;;;17.81;45.13;101465.13;4808837;29;1082;-60
2022/05/09 03:30:29;;;;;;;;;;;;;;;17.82;45.15;101465.94;4808372;29;1912;-60
2022/05/09 03:32:54;;;;;;;;;;;;;;;17.87;45.13;101468.72;4804556;29;780;-61
2022/05/09 03:35:20;;;;;;;;;;;;;;;17.92;45.32;101466.03;4809224;29;817;-60
2022/05/09 03:37:45;;;;;;;;;;;;;;;17.92;45.49;101464.13;4814273;29;874;-60
2022/05/09 03:40:11;;;;;;;;;;;;;;;18.00;45.31;101473.78;4814744;29;826;-62
2022/05/09 03:42:36;;;;;;;;;;;;;;;18.01;45.25;101467.19;4815004;29;761;-64
2022/05/09 03:45:02;;;;;;;;;;;;;;;18.06;45.37;101478.25;4815019;29;822;-62
2022/05/09 03:47:28;;;;;;;;;;;;;;;18.04;45.49;101480.41;4808674;29;844;-60
2022/05/09 03:49:55;;;;;;;;;;;;;;;18.08;45.48;101470.53;4815103;29;1903;-59
2022/05/09 03:52:21;;;;;;;;;;;;;;;18.09;45.57;101480.44;4814848;29;872;-56
2022/05/09 03:54:46;;;;;;;;;;;;;;;18.18;45.57;101479.94;4814369;29;1345;-57
2022/05/09 03:57:13;;;;;;;;;;;;;;;18.13;45.50;101477.97;4815115;29;844;-59
2022/05/09 03:59:39;;;;;;;;;;;;;;;18.15;45.64;101481.31;4814257;29;819;-58
2022/05/09 04:02:04;;;;;;;;;;;;;;;18.19;45.49;101482.44;4813675;29;1096;-58
2022/05/09 04:04:29;;;;;;;;;;;;;;;18.22;45.78;101470.06;4815250;29;821;-59
2022/05/09 04:06:55;;;;;;;;;;;;;;;18.29;45.66;101485.22;4814698;29;856;-60
2022/05/09 04:09:20;;;;;;;;;;;;;;;18.32;45.71;101488.56;4814532;29;845;-59
2022/05/09 04:11:47;;;;;;;;;;;;;;;18.32;45.91;101483.88;4815046;29;1978;-59
2022/05/09 04:14:13;;;;;;;;;;;;;;;18.33;45.66;101482.78;4814833;29;796;-58
2022/05/09 04:16:50;;;;;;;;;;;;;;;18.19;45.01;101482.44;4813935;29;969;-59
2022/05/09 04:19:18;;;;;;;;;;;;;;;18.00;43.84;101487.53;4815284;29;889;-59
2022/05/09 04:21:44;;;;;;;;;;;;;;;17.76;42.45;101490.66;4814959;29;1058;-60
2022/05/09 04:24:11;;;;;;;;;;;;;;;17.47;41.37;101481.91;4815182;29;1125;-59
2022/05/09 04:26:37;;;;;;;;;;;;;;;17.26;40.18;101487.25;4814640;29;750;-58
2022/05/09 04:29:02;;;;;;;;;;;;;;;17.16;39.61;101489.06;4814338;29;1204;-59
2022/05/09 04:31:30;;;;;;;;;;;;;;;17.01;38.97;101489.72;4813632;29;1895;-59
2022/05/09 04:33:57;;;;;;;;;;;;;;;17.01;39.22;101490.56;4814668;29;1514;-61
2022/05/09 04:36:23;;;;;;;;;;;;;;;17.09;40.42;101492.84;4814393;29;1132;-58
2022/05/09 04:38:52;;;;;;;;;;;;;;;17.43;42.30;101478.88;4814507;29;1408;-58
2022/05/09 04:41:19;;;;;;;;;;;;;;;17.84;44.27;101491.25;4814802;29;751;-59
2022/05/09 04:43:45;;;;;;;;;;;;;;;18.16;45.70;101491.22;4814079;29;836;-59
2022/05/09 04:46:11;;;;;;;;;;;;;;;18.50;46.00;101501.03;4813963;29;1421;-59
2022/05/09 04:48:38;;;;;;;;;;;;;;;18.67;46.52;101498.88;4811112;29;1827;-59
2022/05/09 04:51:03;;;;;;;;;;;;;;;18.73;46.76;101500.56;4811442;29;1946;-59
2022/05/09 04:53:29;;;;;;;;;;;;;;;18.59;46.55;101497.50;4811656;29;807;-58
2022/05/09 04:55:55;;;;;;;;;;;;;;;18.38;45.53;101502.06;4811121;29;847;-58
2022/05/09 04:58:20;;;;;;;;;;;;;;;18.14;44.78;101507.16;4811684;29;808;-60
2022/05/09 05:00:46;;;;;;;;;;;;;;;17.88;43.15;101503.38;4810641;29;874;-59
2022/05/09 05:03:11;;;;;;;;;;;;;;;17.64;41.96;101502.94;4811419;29;792;-59
2022/05/09 05:05:37;;;;;;;;;;;;;;;17.42;40.81;101499.19;4811180;29;870;-57
2022/05/09 05:08:03;;;;;;;;;;;;;;;17.35;40.33;101505.97;4811017;29;862;-60
2022/05/09 05:10:30;;;;;;;;;;;;;;;17.17;39.64;101502.53;4811218;29;1907;-58
2022/05/09 05:12:56;;;;;;;;;;;;;;;17.05;39.14;101508.19;4811697;29;818;-58
2022/05/09 05:15:22;;;;;;;;;;;;;;;16.95;39.06;101519.06;4810441;29;1060;-57
2022/05/09 05:17:47;;;;;;;;;;;;;;;17.01;39.68;101512.56;4811525;29;821;-58
2022/05/09 05:20:13;;;;;;;;;;;;;;;17.33;41.90;101517.25;4810388;29;1030;-59
2022/05/09 05:22:39;;;;;;;;;;;;;;;17.65;44.32;101512.84;4810264;29;1033;-57
2022/05/09 05:25:05;;;;;;;;;;;;;;;18.00;45.67;101511.50;4811005;29;918;-59
2022/05/09 05:27:31;;;;;;;;;;;;;;;18.35;46.41;101516.38;4810636;29;994;-59
2022/05/09 05:29:57;;;;;;;;;;;;;;;18.56;46.96;101519.22;4810636;29;1911;-59
2022/05/09 05:32:24;;;;;;;;;;;;;;;18.76;47.07;101529.47;4810760;29;1021;-58
2022/05/09 05:34:50;;;;;;;;;;;;;;;18.61;47.17;101517.31;4810667;29;839;-59
2022/05/09 05:37:16;;;;;;;;;;;;;;;18.39;46.25;101520.25;4810602;29;1219;-57
2022/05/09 05:39:42;;;;;;;;;;;;;;;18.14;45.21;101529.19;4811135;29;764;-57
2022/05/09 05:42:07;;;;;;;;;;;;;;;17.84;43.66;101525.09;4810917;29;870;-57
2022/05/09 05:44:33;;;;;;;;;;;;;;;17.65;42.51;101526.59;4810595;29;870;-57
2022/05/09 05:46:59;;;;;;;;;;;;;;;17.42;41.27;101534.13;4810079;29;743;-58
2022/05/09 05:49:26;;;;;;;;;;;;;;;17.33;40.50;101527.44;4810629;29;1448;-58
2022/05/09 05:51:51;;;;;;;;;;;;;;;17.18;39.81;101528.09;4810448;29;1977;-56
2022/05/09 05:54:17;;;;;;;;;;;;;;;17.03;39.58;101529.59;4810827;29;764;-58
2022/05/09 05:56:42;;;;;;;;;;;;;;;16.96;39.47;101536.38;4810441;29;1096;-57
2022/05/09 05:59:08;;;;;;;;;;;;;;;16.88;39.37;101541.25;4809150;29;1372;-57
2022/05/09 06:01:33;;;;;;;;;;;;;;;16.82;39.40;101546.91;4809254;29;1031;-56
2022/05/09 06:03:59;;;;;;;;;;;;;;;16.78;39.71;101546.59;4810114;29;1129;-57
2022/05/09 06:06:25;;;;;;;;;;;;;;;16.79;39.76;101550.16;4809884;29;1121;-57
2022/05/09 06:08:50;;;;;;;;;;;;;;;16.75;39.80;101547.94;4809968;29;1268;-57
2022/05/09 06:11:16;;;;;;;;;;;;;;;16.83;40.61;101551.31;4809417;29;1887;-57
2022/05/09 06:13:41;;;;;;;;;;;;;;;17.16;43.35;101538.53;4809686;29;1046;-57
2022/05/09 06:16:07;;;;;;;;;;;;;;;17.69;45.36;101547.81;4808985;29;1236;-58
2022/05/09 06:18:32;;;;;;;;;;;;;;;18.02;46.85;101553.31;4809596;29;1102;-58
2022/05/09 06:20:58;;;;;;;;;;;;;;;18.31;47.52;101551.03;4807883;29;1302;-58
2022/05/09 06:23:25;;;;;;;;;;;;;;;18.54;47.95;101548.97;4809291;29;1129;-57
2022/05/09 06:25:51;;;;;;;;;;;;;;;18.68;47.86;101550.13;4807771;29;1312;-58
2022/05/09 06:28:16;;;;;;;;;;;;;;;18.50;47.54;101556.94;4809369;29;1272;-57
2022/05/09 06:30:42;;;;;;;;;;;;;;;18.17;46.06;101556.16;4808458;29;1911;-58
2022/05/09 06:33:07;;;;;;;;;;;;;;;17.89;44.50;101560.06;4810000;29;1263;-59
2022/05/09 06:35:39;;;;;;;;;;;;;;;17.56;43.01;101551.03;4810019;29;882;-58
2022/05/09 06:38:05;;;;;;;;;;;;;;;17.40;41.58;101550.88;4809816;29;811;-58
2022/05/09 06:40:31;;;;;;;;;;;;;;;17.21;40.78;101549.59;4809793;29;887;-59
2022/05/09 06:42:56;;;;;;;;;;;;;;;17.04;40.35;101550.50;4809576;29;797;-58
2022/05/09 06:45:26;;;;;;;;;;;;;;;16.98;40.17;101554.25;4808320;29;1104;-60
2022/05/09 06:47:52;;;;;;;;;;;;;;;16.88;39.71;101554.13;4810130;29;791;-59
2022/05/09 06:50:18;;;;;;;;;;;;;;;16.98;40.82;101551.50;4804594;29;2021;-61
2022/05/09 06:52:43;;;;;;;;;;;;;;;17.34;42.69;101560.16;4807569;29;1033;-64
2022/05/09 06:55:09;;;;;;;;;;;;;;;17.65;45.35;101552.19;4808665;29;1044;-60
2022/05/09 06:57:38;;;;;;;;;;;;;;;17.98;47.00;101557.69;4810220;29;1093;-60
2022/05/09 07:00:05;;;;;;;;;;;;;;;18.30;47.47;101549.41;4807542;29;1132;-61
2022/05/09 07:02:31;;;;;;;;;;;;;;;18.58;47.84;101561.06;4807764;29;986;-61
2022/05/09 07:05:05;;;;;;;;;;;;;;;18.72;48.02;101558.66;4808120;29;1258;-60
2022/05/09 07:07:37;;;;;;;;;;;;;;;18.58;47.72;101561.94;4807909;29;808;-60
2022/05/09 07:10:03;;;;;;;;;;;;;;;18.28;46.79;101562.56;4807984;29;1982;-61
2022/05/09 07:12:28;;;;;;;;;;;;;;;18.02;45.24;101556.91;4807531;29;753;-61
2022/05/09 07:14:54;;;;;;;;;;;;;;;17.81;43.55;101566.06;4807461;29;889;-61
2022/05/09 07:17:19;;;;;;;;;;;;;;;17.52;42.32;101560.88;4808172;29;1378;-60
2022/05/09 07:19:44;;;;;;;;;;;;;;;17.34;41.22;101565.66;4808025;29;880;-61
2022/05/09 07:22:10;;;;;;;;;;;;;;;17.21;40.86;101561.41;4807806;29;1129;-62
2022/05/09 07:24:36;;;;;;;;;;;;;;;17.08;40.03;101568.13;4806175;29;1225;-61
2022/05/09 07:27:01;;;;;;;;;;;;;;;16.97;39.71;101563.63;4807946;29;968;-60
2022/05/09 07:29:27;;;;;;;;;;;;;;;16.92;39.90;101575.34;4808267;29;949;-60
2022/05/09 07:31:52;;;;;;;;;;;;;;;16.99;39.99;101575.16;4808557;29;1972;-62
2022/05/09 07:34:18;;;;;;;;;;;;;;;17.10;41.04;101576.13;4808977;29;800;-61
2022/05/09 07:36:43;;;;;;;;;;;;;;;17.22;42.31;101567.72;4809070;29;784;-59
2022/05/09 07:39:09;;;;;;;;;;;;;;;17.40;43.34;101564.63;4809014;29;817;-61
2022/05/09 07:41:35;;;;;;;;;;;;;;;17.48;43.91;101566.06;4808976;29;807;-60
2022/05/09 07:44:01;;;;;;;;;;;;;;;17.56;44.44;101568.34;4808367;29;1625;-58
2022/05/09 07:46:27;;;;;;;;;;;;;;;17.69;44.81;101572.56;4808878;29;822;-61
2022/05/09 07:48:52;;;;;;;;;;;;;;;17.69;45.26;101569.81;4809574;29;828;-60
2022/05/09 07:51:18;;;;;;;;;;;;;;;17.75;45.43;101577.03;4808504;29;1907;-57
2022/05/09 07:53:44;;;;;;;;;;;;;;;17.82;45.66;101565.78;4808243;29;793;-57
2022/05/09 07:56:09;;;;;;;;;;;;;;;17.82;45.71;101565.78;4807922;29;788;-56
2022/05/09 07:58:35;;;;;;;;;;;;;;;17.93;45.71;101575.00;4808534;29;764;-60
2022/05/09 08:01:02;;;;;;;;;;;;;;;17.89;45.74;101571.09;4808635;29;776;-61
2022/05/09 08:03:29;;;;;;;;;;;;;;;17.94;45.97;101571.97;4808660;29;2045;-59
2022/05/09 08:05:56;;;;;;;;;;;;;;;18.04;45.93;101576.72;4808332;29;813;-59
2022/05/09 08:08:22;;;;;;;;;;;;;;;18.02;45.82;101578.09;4808809;29;835;-58
2022/05/09 08:10:48;;;;;;;;;;;;;;;18.10;45.79;101578.44;4808949;29;1907;-58
2022/05/09 08:13:14;;;;;;;;;;;;;;;18.11;46.05;101573.75;4808269;29;768;-58
2022/05/09 08:15:40;;;;;;;;;;;;;;;18.13;45.91;101571.56;4808048;29;867;-60
2022/05/09 08:18:05;;;;;;;;;;;;;;;18.15;45.94;101568.56;4808288;29;996;-57
2022/05/09 08:20:33;;;;;;;;;;;;;;;18.17;45.89;101561.69;4805560;29;1144;-57
2022/05/09 08:23:09;;;;;;;;;;;;;;;18.15;45.74;101571.31;4809970;29;1236;-57
2022/05/09 08:25:36;;;;;;;;;;;;;;;17.98;45.17;101563.19;4811136;29;1169;-58
2022/05/09 08:28:02;;;;;;;;;;;;;;;17.82;44.11;101567.72;4810963;29;1309;-59
2022/05/09 08:30:32;;;;;;;;;;;;;;;17.62;42.69;101567.28;4808691;29;1974;-60
2022/05/09 08:32:58;;;;;;;;;;;;;;;17.42;41.75;101576.19;4811649;29;1003;-59
2022/05/09 08:35:23;;;;;;;;;;;;;;;17.28;41.02;101572.19;4810837;29;1212;-61
2022/05/09 08:37:49;;;;;;;;;;;;;;;17.13;40.47;101563.78;4811744;29;1268;-58
2022/05/09 08:40:15;;;;;;;;;;;;;;;17.02;40.02;101563.66;4811468;29;1288;-58
2022/05/09 08:42:59;;;;;;;;;;;;;;;17.00;40.07;101568.59;4811015;29;1220;-59
2022/05/09 08:45:26;;;;;;;;;;;;;;;16.94;40.23;101572.34;4808991;29;1083;-59
2022/05/09 08:47:55;;;;;;;;;;;;;;;17.08;41.32;101575.53;4810158;29;1300;-59
2022/05/09 08:50:23;;;;;;;;;;;;;;;17.19;42.32;101568.22;4810704;29;1976;-58
2022/05/09 08:52:53;;;;;;;;;;;;;;;17.45;43.88;101569.34;4811318;29;1252;-58
2022/05/09 08:55:23;;;;;;;;;;;;;;;17.76;45.19;101572.34;4810736;29;1088;-60
2022/05/09 08:58:19;;;;;;;;;;;;;;;18.03;45.94;101579.75;4808990;29;1199;-59
2022/05/09 09:00:44;;;;;;;;;;;;;;;18.25;46.28;101571.38;4791307;29;1105;-58
2022/05/09 09:03:15;;;;;;;;;;;;;;;18.36;46.88;101570.34;4810684;29;1362;-59
2022/05/09 09:05:42;;;;;;;;;;;;;;;18.41;46.96;101567.63;4809873;29;1370;-59
2022/05/09 09:08:17;;;;;;;;;;;;;;;18.22;46.66;101561.72;4811548;29;1125;-61
2022/05/09 09:10:52;;;;;;;;;;;;;;;18.01;45.47;101579.19;4810482;29;1966;-60
2022/05/09 09:13:23;;;;;;;;;;;;;;;17.75;43.97;101566.03;4810796;29;861;-62
2022/05/09 09:16:13;;;;;;;;;;;;;;;17.56;42.76;101573.03;4810816;29;823;-59
2022/05/09 09:18:56;;;;;;;;;;;;;;;17.38;41.79;101572.28;4797097;29;1079;-59
2022/05/09 09:21:36;;;;;;;;;;;;;;;17.27;40.97;101576.03;4811132;29;1018;-59
2022/05/09 09:24:13;;;;;;;;;;;;;;;17.10;40.56;101579.69;4810438;29;863;-62
2022/05/09 09:26:54;;;;;;;;;;;;;;;17.04;39.96;101572.47;4791893;29;925;-56
2022/05/09 09:29:19;;;;;;;;;;;;;;;17.00;40.00;101587.81;4811075;29;1029;-57
2022/05/09 09:31:49;;;;;;;;;;;;;;;17.20;41.94;101565.22;4807195;29;1976;-57
2022/05/09 09:34:17;;;;;;;;;;;;;;;17.55;44.03;101572.16;4809275;29;921;-58
2022/05/09 09:36:50;;;;;;;;;;;;;;;17.87;45.96;101574.09;4810248;29;846;-58
2022/05/09 09:39:22;;;;;;;;;;;;;;;18.24;46.56;101569.72;4809729;29;820;-58
2022/05/09 09:41:48;;;;;;;;;;;;;;;18.51;46.96;101572.38;4810572;29;807;-58
2022/05/09 09:44:17;;;;;;;;;;;;;;;18.62;47.61;101567.72;4810865;29;816;-58
2022/05/09 09:47:00;;;;;;;;;;;;;;;18.63;47.19;101574.88;4810258;29;984;-58
2022/05/09 09:49:26;;;;;;;;;;;;;;;18.30;46.66;101561.22;4809183;29;1166;-59
2022/05/09 09:51:51;;;;;;;;;;;;;;;18.08;45.43;101564.09;4809960;29;1969;-58
2022/05/09 09:54:18;;;;;;;;;;;;;;;17.86;43.96;101563.38;4810168;29;1337;-57
2022/05/09 09:56:43;;;;;;;;;;;;;;;17.60;42.87;101563.16;4808407;29;1180;-58
2022/05/09 09:59:09;;;;;;;;;;;;;;;17.48;41.84;101560.56;4810392;29;1444;-58
2022/05/09 10:01:35;;;;;;;;;;;;;;;17.37;40.95;101570.63;4808754;29;1100;-58
2022/05/09 10:04:04;;;;;;;;;;;;;;;17.26;40.42;101568.84;4809889;29;1338;-59
2022/05/09 10:06:30;;;;;;;;;;;;;;;17.09;40.12;101556.03;4809870;29;1127;-58
2022/05/09 10:08:59;;;;;;;;;;;;;;;17.01;40.04;101566.66;4810322;29;777;-59
2022/05/09 10:11:28;;;;;;;;;;;;;;;17.07;40.56;101555.47;4809619;29;1935;-59
2022/05/09 10:13:54;;;;;;;;;;;;;;;17.42;42.94;101561.63;4809412;29;1289;-58
2022/05/09 10:16:27;;;;;;;;;;;;;;;17.97;45.96;101550.56;4808517;29;1265;-57
2022/05/09 10:18:52;;;;;;;;;;;;;;;18.43;47.06;101562.66;4808870;29;1491;-59
2022/05/09 10:24:47;;;;;;;;;;;;;;;18.73;47.74;101555.66;4807475;29;1376;-59
2022/05/09 10:26:52;;;;;;;;;;;;;;;18.06;49.48;101560.81;4804831;29;1440;-60
2022/05/09 10:29:17;;;;;;;;;;;;;;;17.63;48.65;101557.13;4807197;29;1401;-60
2022/05/09 10:31:52;;;;;;;;;;;;;;;17.11;47.09;101553.06;4808969;29;1978;-59
2022/05/09 10:34:36;;;;;;;;;;;;;;;17.34;44.27;101553.84;4809548;29;815;-58
2022/05/09 10:37:13;;;;;;;;;;;;;;;17.26;42.61;101563.34;4805581;29;1235;-59
2022/05/09 10:39:40;;;;;;;;;;;;;;;17.16;41.41;101560.50;4809508;29;815;-58
2022/05/09 10:42:07;;;;;;;;;;;;;;;17.06;40.59;101564.78;4807442;29;1328;-57
2022/05/09 10:44:41;;;;;;;;;;;;;;;16.95;40.38;101563.03;4806280;29;1210;-58
2022/05/09 10:47:08;;;;;;;;;;;;;;;17.03;41.13;101554.31;4806194;29;1291;-57
2022/05/09 10:49:49;;;;;;;;;;;;;;;17.20;41.96;101558.91;4808238;29;1428;-60
2022/05/09 10:52:18;;;;;;;;;;;;;;;17.51;44.32;101553.72;4805238;29;1239;-58
2022/05/09 10:54:45;;;;;;;;;;;;;;;17.82;46.04;101563.03;4809169;29;1278;-59
2022/05/09 10:57:14;;;;;;;;;;;;;;;18.03;47.28;101566.81;4808550;29;1341;-59
2022/05/09 10:59:41;;;;;;;;;;;;;;;18.29;48.17;101565.06;4807213;29;1283;-57
2022/05/09 11:02:21;;;;;;;;;;;;;;;18.47;48.22;101560.22;4807569;29;1209;-59
2022/05/09 11:04:46;;;;;;;;;;;;;;;18.66;48.43;101562.50;4808644;29;1251;-57
2022/05/09 11:07:44;;;;;;;;;;;;;;;18.61;48.04;101560.56;4810328;29;1393;-59
2022/05/09 11:10:10;;;;;;;;;;;;;;;18.34;46.83;101553.28;4762866;29;1976;-60
2022/05/09 11:12:54;;;;;;;;;;;;;;;18.09;45.47;101554.75;4808451;29;1313;-59
2022/05/09 11:15:32;;;;;;;;;;;;;;;17.88;43.61;101555.66;4807986;29;1189;-56
2022/05/09 11:18:27;;;;;;;;;;;;;;;17.63;42.64;101554.38;4804041;29;1293;-57
2022/05/09 11:21:04;;;;;;;;;;;;;;;17.47;41.65;101566.31;4795099;29;1440;-56
2022/05/09 11:23:32;;;;;;;;;;;;;;;17.31;40.81;101554.34;4805790;29;1182;-57
2022/05/09 11:26:10;;;;;;;;;;;;;;;17.20;40.55;101556.16;4808249;29;1260;-58
2022/05/09 11:28:36;;;;;;;;;;;;;;;17.12;40.12;101554.69;4806985;29;1043;-59
2022/05/09 11:31:02;;;;;;;;;;;;;;;17.02;39.68;101563.66;4808152;29;1907;-59
2022/05/09 11:33:45;;;;;;;;;;;;;;;16.91;39.49;101561.88;4807487;29;1252;-58
2022/05/09 11:36:20;;;;;;;;;;;;;;;16.94;40.18;101564.09;4808774;29;867;-58
2022/05/09 11:38:51;;;;;;;;;;;;;;;17.11;41.28;101566.78;4808725;29;825;-59
2022/05/09 11:41:25;;;;;;;;;;;;;;;17.26;42.49;101563.34;4807647;29;998;-56
2022/05/09 11:43:54;;;;;;;;;;;;;;;17.41;43.49;101559.94;4808223;29;1006;-57
2022/05/09 11:46:33;;;;;;;;;;;;;;;17.70;45.12;101554.97;4807663;29;912;-57
2022/05/09 11:49:13;;;;;;;;;;;;;;;17.95;46.61;101548.06;4808118;29;1205;-57
2022/05/09 11:51:46;;;;;;;;;;;;;;;18.22;47.32;101552.66;4807227;29;1911;-57
2022/05/09 11:54:32;;;;;;;;;;;;;;;18.43;47.69;101548.91;4799838;29;1409;-57
2022/05/09 11:57:09;;;;;;;;;;;;;;;18.64;47.83;101549.00;4798227;29;1352;-57
2022/05/09 11:59:35;;;;;;;;;;;;;;;18.47;47.36;101540.94;4811599;29;1272;-57
2022/05/09 12:02:05;;;;;;;;;;;;;;;18.18;46.68;101552.34;4810658;29;1257;-57
2022/05/09 12:04:40;;;;;;;;;;;;;;;18.03;44.81;101543.97;4811324;29;1363;-57
2022/05/09 12:07:21;;;;;;;;;;;;;;;17.71;43.31;101542.06;4812479;29;974;-57
2022/05/09 12:10:05;;;;;;;;;;;;;;;17.53;42.28;101535.88;4811696;29;1911;-57
2022/05/09 12:12:37;;;;;;;;;;;;;;;17.36;41.38;101530.50;4808107;29;1019;-57
2022/05/09 12:15:06;;;;;;;;;;;;;;;17.28;40.71;101534.53;4811300;29;911;-57
2022/05/09 12:17:33;;;;;;;;;;;;;;;17.14;40.68;101533.28;4810565;29;840;-55
2022/05/09 12:19:58;;;;;;;;;;;;;;;17.03;40.41;101528.78;4811262;29;1060;-57
2022/05/09 12:22:39;;;;;;;;;;;;;;;17.10;40.28;101521.97;4812043;29;875;-58
2022/05/09 12:25:06;;;;;;;;;;;;;;;16.99;40.21;101522.97;4811811;29;827;-57
2022/05/09 12:27:40;;;;;;;;;;;;;;;17.06;40.80;101520.84;4807033;29;1415;-57
2022/05/09 12:30:25;;;;;;;;;;;;;;;17.24;42.28;101521.56;4809721;29;1911;-57
2022/05/09 12:32:51;;;;;;;;;;;;;;;17.43;43.27;101511.84;4801844;29;1814;-56
2022/05/09 12:35:16;;;;;;;;;;;;;;;17.51;43.86;101506.97;4810551;29;960;-56
2022/05/09 12:37:43;;;;;;;;;;;;;;;17.65;44.09;101499.09;4810460;29;806;-57
2022/05/09 12:40:18;;;;;;;;;;;;;;;17.65;44.81;101523.84;4811148;29;833;-56
2022/05/09 12:42:47;;;;;;;;;;;;;;;17.69;44.99;101509.31;4810232;29;1260;-58
2022/05/09 12:45:13;;;;;;;;;;;;;;;17.74;44.86;101508.50;4810947;29;1407;-56
2022/05/09 12:47:38;;;;;;;;;;;;;;;17.82;44.92;101499.78;4810100;29;1361;-56
2022/05/09 12:50:06;;;;;;;;;;;;;;;17.83;45.01;101497.88;4810951;29;1915;-57
2022/05/09 12:52:33;;;;;;;;;;;;;;;17.86;45.16;101497.34;4800180;29;1563;-58
2022/05/09 12:57:52;;;;;;;;;;;;;;;17.88;45.00;101492.38;4807638;29;987;-57
2022/05/09 13:00:17;;;;;;;;;;;;;;;17.87;45.32;101485.25;4810205;29;782;-57
2022/05/09 13:02:43;;;;;;;;;;;;;;;17.92;44.97;101483.38;4809943;29;884;-56
2022/05/09 13:05:09;;;;;;;;;;;;;;;17.96;45.02;101478.16;4810837;29;848;-56
2022/05/09 13:07:51;;;;;;;;;;;;;;;18.00;44.96;101487.53;4811650;29;737;-58
2022/05/09 13:10:17;;;;;;;;;;;;;;;17.99;45.04;101487.81;4809909;29;1974;-57
2022/05/09 13:12:42;;;;;;;;;;;;;;;17.98;45.07;101476.00;4811214;29;849;-57